Scott AFB/Midamerica Airport
KBLV : now visible

Airfield :











YOU CAN JOIN US ON...

 
LOGIN :

Register | Disclaimer

   EN    FR    IT 

 









Legend :    VFR   Marginal VFR   IFR   Intensive IFR   Very Intensive IFR
Visi :
Ceiling :
>= 8 km
>= 3000ft
5 to 8 km
1000 to 3000 ft
1500m to 5 km
500 to 1000 ft
800 to 1500m
200 to 500 ft
< 800m
< 200 ft
Symbols :   Thunderstorms  Fog  Heavy snow  Heavy precipitations  Wind > 20 kt






- Airport Elevation : 459 ft


KBLV - Scott AFB/Midamerica

CURRENT METAR :
  • 101856Z 23014G31KT 10SM FEW037 BKN048 16/09 A2943 RMK AO2A PK WND 22032/49 SLP967 T01610093 $

EXPIRED METARs :
  • 101816Z 22015G24KT 10SM BKN032 OVC042 16/11 A2944 RMK AO2A SLP971 $
  • 101756Z 23012G22KT 10SM BKN028 OVC039 17/13 A2944 RMK AO2A PK WND 22030/46 CIG 026V037 SLP970 60018 T01690130 10169 20142 50005 $
  • 101741Z 22008G20KT 10SM FEW017 SCT026 SCT032 BKN042 17/14 A2944 RMK AO2A SLP970 $
  • 101731Z 22014G24KT 10SM SCT017 BKN028 BKN033 17/14 A2944 RMK AO2A CIG 017V028 CIG 025 RWY32L SLP970 $
  • 101656Z 21009KT 10SM BKN015 BKN019 OVC065 15/15 A2945 RMK AO2A RAB1550E1553DZB1553E22 SLP974 P0001T01500150 $
  • 101622Z 24010KT 10SM -DZ SCT015 BKN028 BKN034 OVC041 15/15 A2946 RMK AO2A CIG 014V028 CIG 026 RWY32L SLP978 $
  • 101616Z 22005KT 10SM -DZ BKN016 BKN031 OVC041 15/15 A2946 RMK AO2A CIG 012V016 BKN016 V OVC CIG 014 RWY32L SLP978 $

TAF AMD TAF KBLV
Valid from the 10 at 17:00 until the 11 at 22:00 UTC


101745Z 1017/1122 25015G25KT 9999 OVC030 510004 QNH2943INS
TEMPO 1019/1102 25025G35KT 520004
BECMG 1102/1103 25020G30KT 9000 -RA BKN015 OVC020 510004 QNH2947INS
BECMG 1105/1106 24012G20KT 9000 -RA BR BKN010 OVC015 510103 QNH2946INS
BECMG 1111/1112 24012G20KT 9000 -DZ SCT015 BKN030 510103 QNH2949INS
BECMG 1114/1115 27025G35KT 9999 NSW FEW050 520004 QNH2951INS TX15/1017Z TN09/1110Z
KZKC FIR / North America



MET'MAP, your aeronautical weather chart ! - Copyright ORBIFLY December 2007 - Disclaimer

ORBIFLY MET'MAP TEAM :

Programming & Development : Alexandra Zaïnal
Concept & original design : Baudouin d'Aumeries
Assistance for programming : Marc-Olivier Méhu
Technical & hardware support : Manuel Goepfert

Contact : metmap@orbifly.com




SOURCES & CREDITS :

   NOAA       Earth
Advisory